Time;durP1;ratioP1;P1;durP2;ratioP2;P2;SDS_P1;SDS_P2;PMS_P1;PMS_P2;Temp;Humidity;BMP_temperature;BMP_pressure;BME280_temperature;BME280_humidity;BME280_pressure;Samples;Min_cycle;Max_cycle;Signal;HPM_P1;HPM_P2
2021/04/18 00:01:49;;;;;;;;;;;;;;;21.58;26.57;97841.50;5086753;28;2009;-85
2021/04/18 00:04:14;;;;;;;;;;;;;;;21.58;26.51;97835.06;5085570;28;750;-85
2021/04/18 00:06:40;;;;;;;;;;;;;;;21.52;26.51;97836.84;5086466;28;1428;-84
2021/04/18 00:09:06;;;;;;;;;;;;;;;21.47;26.61;97832.53;5068570;28;1287;-84
2021/04/18 00:11:32;;;;;;;;;;;;;;;21.43;26.67;97836.69;5069391;28;1320;-85
2021/04/18 00:13:58;;;;;;;;;;;;;;;21.43;26.80;97833.88;5068681;28;965;-84
2021/04/18 00:16:23;;;;;;;;;;;;;;;21.45;26.69;97825.72;5069623;28;1006;-84
2021/04/18 00:18:49;;;;;;;;;;;;;;;21.58;26.49;97826.56;5085402;28;591;-84
2021/04/18 00:21:14;;;;;;;;;;;;;;;21.47;26.73;97820.41;5086313;28;1890;-85
2021/04/18 00:23:39;;;;;;;;;;;;;;;21.50;26.52;97809.00;5067732;28;910;-84
2021/04/18 00:26:05;;;;;;;;;;;;;;;21.44;26.82;97818.47;5069264;28;925;-85
2021/04/18 00:28:31;;;;;;;;;;;;;;;21.49;26.58;97815.09;5084992;28;927;-85
2021/04/18 00:30:57;;;;;;;;;;;;;;;21.52;26.73;97825.53;5085463;28;898;-84
2021/04/18 00:33:22;;;;;;;;;;;;;;;21.59;26.43;97825.31;5084853;28;577;-85
2021/04/18 00:35:49;;;;;;;;;;;;;;;21.45;26.62;97831.38;5069289;28;631;-85
2021/04/18 00:38:14;;;;;;;;;;;;;;;21.35;26.99;97826.81;5102936;28;753;-85
2021/04/18 00:40:40;;;;;;;;;;;;;;;21.44;26.75;97829.78;5085606;28;1961;-84
2021/04/18 00:43:05;;;;;;;;;;;;;;;21.67;26.56;97821.03;5102768;28;935;-85
2021/04/18 00:45:40;;;;;;;;;;;;;;;22.12;25.65;97828.56;5085817;28;1109;-84
2021/04/18 00:48:09;;;;;;;;;;;;;;;22.34;25.50;97835.19;5068203;28;849;-85
2021/04/18 00:50:35;;;;;;;;;;;;;;;22.02;25.64;97835.34;5085899;28;641;-85
2021/04/18 00:53:05;;;;;;;;;;;;;;;21.54;26.52;97837.19;5085785;28;629;-85
2021/04/18 00:55:31;;;;;;;;;;;;;;;21.59;26.49;97831.75;5069125;28;865;-85
2021/04/18 00:57:57;;;;;;;;;;;;;;;21.47;26.77;97817.59;5068237;28;977;-85
2021/04/18 01:00:23;;;;;;;;;;;;;;;21.41;26.95;97827.88;5069065;28;1910;-84
2021/04/18 01:02:55;;;;;;;;;;;;;;;21.49;26.81;97823.59;5069284;28;1249;-85
2021/04/18 01:05:21;;;;;;;;;;;;;;;21.46;26.79;97824.50;5085883;28;597;-84
2021/04/18 01:07:46;;;;;;;;;;;;;;;21.53;26.60;97827.09;5085319;28;625;-85
2021/04/18 01:10:12;;;;;;;;;;;;;;;21.82;26.37;97822.19;5068895;28;1188;-85
2021/04/18 01:12:39;;;;;;;;;;;;;;;22.22;25.86;97827.44;5068308;28;1464;-85
2021/04/18 01:15:08;;;;;;;;;;;;;;;22.24;25.59;97830.63;5085563;28;1082;-85
2021/04/18 01:17:33;;;;;;;;;;;;;;;21.82;26.18;97827.06;5085698;28;636;-85
2021/04/18 01:19:59;;;;;;;;;;;;;;;21.69;26.21;97823.41;5085208;28;1883;-85
2021/04/18 01:22:25;;;;;;;;;;;;;;;21.62;26.60;97818.75;5069539;28;1323;-85
2021/04/18 01:25:00;;;;;;;;;;;;;;;21.55;26.65;97827.44;5069426;28;1292;-85
2021/04/18 01:27:38;;;;;;;;;;;;;;;21.46;26.99;97811.13;5085433;28;1190;-85
2021/04/18 01:30:06;;;;;;;;;;;;;;;21.52;26.60;97815.00;5068658;28;828;-85
2021/04/18 01:32:31;;;;;;;;;;;;;;;21.50;26.86;97811.84;5068563;28;858;-85
2021/04/18 01:34:58;;;;;;;;;;;;;;;21.52;26.73;97809.34;5085195;28;658;-85
2021/04/18 01:37:23;;;;;;;;;;;;;;;21.38;26.95;97804.06;5069069;28;1182;-85
2021/04/18 01:39:49;;;;;;;;;;;;;;;21.39;27.18;97802.03;5068232;28;976;-85
2021/04/18 01:42:15;;;;;;;;;;;;;;;21.54;26.53;97806.03;5103688;28;1898;-85
2021/04/18 01:44:41;;;;;;;;;;;;;;;21.53;26.67;97798.81;5072000;28;1345;-85
2021/04/18 01:47:08;;;;;;;;;;;;;;;21.39;27.03;97805.66;5089741;28;691;-85
2021/04/18 01:49:34;;;;;;;;;;;;;;;21.87;26.27;97800.22;5088759;28;1315;-85
2021/04/18 01:52:00;;;;;;;;;;;;;;;22.17;25.64;97799.69;5089066;28;778;-85
2021/04/18 01:54:26;;;;;;;;;;;;;;;22.35;25.38;97794.25;5071942;28;1319;-84
2021/04/18 01:56:51;;;;;;;;;;;;;;;21.85;25.87;97804.28;5088670;28;973;-85
2021/04/18 01:59:19;;;;;;;;;;;;;;;21.65;26.50;97803.69;5071988;28;1257;-85
2021/04/18 02:02:04;;;;;;;;;;;;;;;21.58;26.64;97795.41;5073534;28;1952;-85
2021/04/18 02:04:30;;;;;;;;;;;;;;;21.48;26.79;97790.88;5071705;28;1138;-84
2021/04/18 02:07:03;;;;;;;;;;;;;;;21.51;26.74;97789.97;5073911;28;1181;-85
2021/04/18 02:09:30;;;;;;;;;;;;;;;21.62;26.63;97796.09;5054422;28;1302;-84
2021/04/18 02:12:05;;;;;;;;;;;;;;;21.58;26.57;97790.53;5071640;28;878;-84
2021/04/18 02:14:32;;;;;;;;;;;;;;;21.53;26.58;97798.81;5087844;28;1188;-84
2021/04/18 02:17:03;;;;;;;;;;;;;;;21.56;26.64;97793.03;5088832;28;1149;-85
2021/04/18 02:19:29;;;;;;;;;;;;;;;21.46;26.75;97793.38;5071110;28;1513;-85
2021/04/18 02:21:56;;;;;;;;;;;;;;;21.41;27.06;97791.09;5071800;28;1914;-84
2021/04/18 02:24:21;;;;;;;;;;;;;;;21.42;26.90;97792.66;5087154;28;845;-85
2021/04/18 02:26:47;;;;;;;;;;;;;;;21.93;26.24;97799.22;5072121;28;1209;-85
2021/04/18 02:29:22;;;;;;;;;;;;;;;22.28;25.82;97797.31;5072807;28;1377;-85
2021/04/18 02:31:55;;;;;;;;;;;;;;;22.54;25.18;97800.13;5073020;28;1205;-85
2021/04/18 02:34:20;;;;;;;;;;;;;;;21.82;26.21;97802.38;5105400;28;637;-84
2021/04/18 02:36:46;;;;;;;;;;;;;;;21.67;26.53;97798.38;5071921;28;1155;-84
2021/04/18 02:39:11;;;;;;;;;;;;;;;21.69;26.47;97803.59;5087271;28;1105;-85
2021/04/18 02:41:37;;;;;;;;;;;;;;;21.72;26.39;97805.53;5088019;28;1914;-84
2021/04/18 02:44:03;;;;;;;;;;;;;;;21.62;26.64;97795.31;5071433;28;1468;-85
2021/04/18 02:46:30;;;;;;;;;;;;;;;21.56;26.60;97795.09;5071596;28;1149;-85
2021/04/18 02:48:57;;;;;;;;;;;;;;;21.55;26.59;97780.13;5071275;28;1180;-85
2021/04/18 02:51:23;;;;;;;;;;;;;;;21.53;26.54;97793.13;5071207;28;1174;-85
2021/04/18 02:53:48;;;;;;;;;;;;;;;21.54;26.66;97789.06;5103538;28;931;-85
2021/04/18 02:56:14;;;;;;;;;;;;;;;21.53;26.72;97790.31;5071211;28;1165;-85
2021/04/18 02:59:02;;;;;;;;;;;;;;;22.18;25.90;97786.31;5076680;28;1154;-85
2021/04/18 03:01:28;;;;;;;;;;;;;;;22.36;25.64;97781.63;5072250;28;1976;-86
2021/04/18 03:03:54;;;;;;;;;;;;;;;22.02;25.84;97781.50;5087529;28;803;-85
2021/04/18 03:06:20;;;;;;;;;;;;;;;21.75;25.97;97779.91;5071754;28;1193;-85
2021/04/18 03:08:46;;;;;;;;;;;;;;;21.79;25.90;97780.59;5069660;28;1010;-85
2021/04/18 03:11:11;;;;;;;;;;;;;;;21.77;26.25;97779.47;5105312;28;923;-84
2021/04/18 03:13:38;;;;;;;;;;;;;;;21.62;26.31;97779.13;5070230;28;1151;-84
2021/04/18 03:16:04;;;;;;;;;;;;;;;21.61;26.56;97776.75;5087780;28;666;-85
2021/04/18 03:18:29;;;;;;;;;;;;;;;21.53;26.67;97773.31;5086533;28;1263;-85
2021/04/18 03:20:55;;;;;;;;;;;;;;;21.52;26.70;97769.69;5087654;28;1969;-85
2021/04/18 03:23:25;;;;;;;;;;;;;;;21.56;26.72;97763.94;5086320;28;1185;-85
2021/04/18 03:25:54;;;;;;;;;;;;;;;21.56;26.70;97764.72;5071238;28;1288;-85
2021/04/18 03:28:21;;;;;;;;;;;;;;;21.46;26.80;97759.38;5070295;28;1266;-85
2021/04/18 03:30:50;;;;;;;;;;;;;;;21.46;26.81;97762.22;5087703;28;1312;-85
2021/04/18 03:33:19;;;;;;;;;;;;;;;21.45;27.01;97777.59;5070831;28;1256;-85
2021/04/18 03:35:48;;;;;;;;;;;;;;;22.00;25.83;97781.19;5087386;28;1386;-85
2021/04/18 03:38:14;;;;;;;;;;;;;;;22.39;25.51;97767.81;5069339;28;1153;-85
2021/04/18 03:40:43;;;;;;;;;;;;;;;22.36;25.32;97764.63;5070657;28;1992;-85
2021/04/18 03:43:09;;;;;;;;;;;;;;;21.81;26.09;97769.63;5086929;28;1177;-85
2021/04/18 03:45:36;;;;;;;;;;;;;;;21.80;25.88;97768.03;5070363;28;646;-85
2021/04/18 03:48:02;;;;;;;;;;;;;;;21.65;26.35;97769.72;5070143;28;1322;-85
2021/04/18 03:50:28;;;;;;;;;;;;;;;21.65;26.32;97761.22;5087277;28;1181;-85
2021/04/18 03:53:20;;;;;;;;;;;;;;;21.57;26.59;97771.97;5102197;28;881;-85
2021/04/18 03:55:56;;;;;;;;;;;;;;;21.53;26.75;97770.50;5087940;28;1084;-85
2021/04/18 03:58:29;;;;;;;;;;;;;;;21.41;26.78;97774.09;5040927;28;1220;-86
2021/04/18 04:00:59;;;;;;;;;;;;;;;21.52;26.74;97785.91;5034541;28;1969;-86
2021/04/18 04:03:28;;;;;;;;;;;;;;;21.54;26.77;97766.41;5049022;28;1408;-87
2021/04/18 04:05:55;;;;;;;;;;;;;;;21.47;26.80;97778.75;5049143;28;1012;-86
2021/04/18 04:08:25;;;;;;;;;;;;;;;21.49;26.78;97775.47;5032389;28;1338;-87
2021/04/18 04:10:50;;;;;;;;;;;;;;;21.45;26.67;97780.44;5064725;28;932;-86
2021/04/18 04:13:18;;;;;;;;;;;;;;;21.55;26.36;97774.47;5064544;28;1241;-86
2021/04/18 04:15:44;;;;;;;;;;;;;;;21.48;26.69;97779.53;5032346;28;1186;-87
2021/04/18 04:18:11;;;;;;;;;;;;;;;21.35;27.05;97775.88;5048121;28;1262;-86
2021/04/18 04:20:48;;;;;;;;;;;;;;;21.44;26.87;97779.63;5050166;28;1875;-87
2021/04/18 04:23:31;;;;;;;;;;;;;;;21.35;26.96;97787.19;5049729;28;1459;-86
2021/04/18 04:25:56;;;;;;;;;;;;;;;21.39;26.82;97776.56;5065081;28;1162;-86
2021/04/18 04:28:22;;;;;;;;;;;;;;;21.84;26.44;97784.91;5063140;28;957;-86
2021/04/18 04:30:47;;;;;;;;;;;;;;;22.19;25.81;97771.69;5065107;28;1284;-87
2021/04/18 04:33:12;;;;;;;;;;;;;;;22.30;25.60;97760.78;5048026;28;1203;-87
2021/04/18 04:35:40;;;;;;;;;;;;;;;22.02;25.82;97762.50;5048115;28;1177;-86
2021/04/18 04:38:05;;;;;;;;;;;;;;;21.66;26.23;97774.16;5064645;28;893;-87
2021/04/18 04:40:31;;;;;;;;;;;;;;;21.47;26.55;97772.28;5031147;28;1962;-86
2021/04/18 04:42:56;;;;;;;;;;;;;;;21.50;26.52;97771.38;5031260;28;1075;-86
2021/04/18 04:45:22;;;;;;;;;;;;;;;21.68;26.67;97771.66;5064639;28;778;-87
2021/04/18 04:47:47;;;;;;;;;;;;;;;21.39;26.99;97765.25;5064803;28;913;-87
2021/04/18 04:50:13;;;;;;;;;;;;;;;21.60;26.74;97770.25;5047931;28;1154;-87
2021/04/18 04:52:38;;;;;;;;;;;;;;;21.65;26.61;97766.88;5047573;28;1176;-86
2021/04/18 04:55:04;;;;;;;;;;;;;;;21.64;26.66;97776.63;5047293;28;1274;-87
2021/04/18 04:57:29;;;;;;;;;;;;;;;21.96;26.24;97769.16;5065278;28;1157;-87
2021/04/18 04:59:55;;;;;;;;;;;;;;;22.18;25.82;97758.78;5048597;28;1350;-86
2021/04/18 05:02:20;;;;;;;;;;;;;;;22.43;25.44;97763.59;5048015;28;1898;-87
2021/04/18 05:04:46;;;;;;;;;;;;;;;21.92;26.16;97762.84;5031762;28;1289;-87
2021/04/18 05:07:11;;;;;;;;;;;;;;;21.62;26.33;97772.66;5047455;28;1288;-86
2021/04/18 05:09:37;;;;;;;;;;;;;;;21.45;26.90;97760.63;5030926;28;1291;-86
2021/04/18 05:12:04;;;;;;;;;;;;;;;21.44;26.86;97765.47;5031660;28;835;-86
2021/04/18 05:14:30;;;;;;;;;;;;;;;21.52;27.06;97766.06;5047098;28;945;-86
2021/04/18 05:16:55;;;;;;;;;;;;;;;21.42;27.16;97753.81;5031380;28;1169;-86
2021/04/18 05:19:20;;;;;;;;;;;;;;;21.56;26.90;97758.28;5052439;28;844;-86
2021/04/18 05:21:46;;;;;;;;;;;;;;;21.53;26.84;97753.50;5067936;28;1950;-86
2021/04/18 05:24:11;;;;;;;;;;;;;;;21.46;26.84;97756.56;5067792;28;886;-87
2021/04/18 05:26:43;;;;;;;;;;;;;;;21.38;27.00;97755.97;5051676;28;1461;-86
2021/04/18 05:29:08;;;;;;;;;;;;;;;21.49;26.75;97738.66;5052444;28;1169;-87
2021/04/18 05:31:34;;;;;;;;;;;;;;;21.51;27.01;97739.81;5068770;28;769;-87
2021/04/18 05:33:59;;;;;;;;;;;;;;;22.04;26.07;97739.38;5067894;28;1103;-87
2021/04/18 05:36:25;;;;;;;;;;;;;;;22.35;25.66;97751.72;5068022;28;1131;-87
2021/04/18 05:38:53;;;;;;;;;;;;;;;22.06;25.90;97751.03;5051134;28;1195;-86
2021/04/18 05:41:19;;;;;;;;;;;;;;;21.58;26.57;97750.13;5035555;28;1973;-86
2021/04/18 05:43:57;;;;;;;;;;;;;;;21.56;26.96;97749.78;5049086;28;1261;-86
2021/04/18 05:46:22;;;;;;;;;;;;;;;21.57;26.71;97751.38;5049120;28;1188;-86
2021/04/18 05:48:48;;;;;;;;;;;;;;;21.46;26.96;97753.72;5068020;28;1170;-86
2021/04/18 05:51:13;;;;;;;;;;;;;;;21.52;27.02;97757.59;5051114;28;1218;-86
2021/04/18 05:53:39;;;;;;;;;;;;;;;21.53;27.05;97753.50;5067358;28;1063;-86
2021/04/18 05:56:07;;;;;;;;;;;;;;;21.36;27.42;97740.69;5066877;28;1190;-86
2021/04/18 05:58:33;;;;;;;;;;;;;;;21.41;27.02;97740.13;5067511;28;1175;-87
2021/04/18 06:00:58;;;;;;;;;;;;;;;21.45;26.90;97735.13;5050937;28;1949;-87
2021/04/18 06:03:24;;;;;;;;;;;;;;;21.48;27.34;97737.06;5050723;28;1115;-86
2021/04/18 06:05:52;;;;;;;;;;;;;;;21.54;27.08;97732.44;5065927;28;1241;-86
2021/04/18 06:08:18;;;;;;;;;;;;;;;21.77;26.72;97720.81;5048082;28;1116;-86
2021/04/18 06:10:43;;;;;;;;;;;;;;;22.23;25.99;97735.53;5067765;28;1118;-86
2021/04/18 06:13:09;;;;;;;;;;;;;;;22.39;25.96;97742.31;5051324;28;1195;-87
2021/04/18 06:15:34;;;;;;;;;;;;;;;21.97;26.15;97739.63;5066968;28;1317;-86
2021/04/18 06:18:00;;;;;;;;;;;;;;;21.75;26.65;97731.78;5050458;28;1194;-87
2021/04/18 06:20:25;;;;;;;;;;;;;;;21.60;26.90;97739.13;5066872;28;1882;-86
2021/04/18 06:22:51;;;;;;;;;;;;;;;21.56;27.10;97746.94;5067073;28;1190;-86
2021/04/18 06:25:16;;;;;;;;;;;;;;;21.58;27.20;97744.44;5049903;28;1222;-86
2021/04/18 06:27:42;;;;;;;;;;;;;;;21.51;27.24;97745.47;5051270;28;1236;-86
2021/04/18 06:30:11;;;;;;;;;;;;;;;21.44;27.36;97740.00;5050821;28;1206;-87
2021/04/18 06:32:36;;;;;;;;;;;;;;;21.53;27.14;97739.34;5048243;28;1195;-86
2021/04/18 06:35:03;;;;;;;;;;;;;;;21.58;27.23;97750.13;5065416;28;1258;-86
2021/04/18 06:37:31;;;;;;;;;;;;;;;21.57;27.09;97754.19;5066945;28;1308;-86
2021/04/18 06:39:57;;;;;;;;;;;;;;;21.44;27.39;97753.38;5047007;28;1283;-86
2021/04/18 06:42:25;;;;;;;;;;;;;;;21.76;26.99;97756.03;5061116;28;1891;-86
2021/04/18 06:44:51;;;;;;;;;;;;;;;22.23;26.04;97761.03;5066583;28;1138;-86
2021/04/18 06:47:17;;;;;;;;;;;;;;;22.51;25.93;97769.84;5049813;28;807;-87
2021/04/18 06:49:42;;;;;;;;;;;;;;;21.98;26.38;97772.34;5065973;28;1108;-87
2021/04/18 06:52:08;;;;;;;;;;;;;;;21.66;26.88;97779.81;5066097;28;932;-87
2021/04/18 06:54:34;;;;;;;;;;;;;;;21.64;26.82;97782.28;5050046;28;1135;-86
2021/04/18 06:56:59;;;;;;;;;;;;;;;21.60;26.87;97790.09;5051255;28;904;-86
2021/04/18 06:59:25;;;;;;;;;;;;;;;21.65;27.18;97795.19;5088886;28;1171;-86
2021/04/18 07:01:50;;;;;;;;;;;;;;;21.60;27.21;97798.56;5089682;28;1938;-86
2021/04/18 07:04:16;;;;;;;;;;;;;;;21.60;27.13;97792.91;5089966;28;894;-86
2021/04/18 07:06:52;;;;;;;;;;;;;;;21.57;27.21;97793.84;5072803;28;1036;-86
2021/04/18 07:09:18;;;;;;;;;;;;;;;21.55;27.26;97790.63;5072509;28;996;-85
2021/04/18 07:11:54;;;;;;;;;;;;;;;21.50;27.38;97791.19;5073020;28;1155;-85
2021/04/18 07:14:27;;;;;;;;;;;;;;;21.48;27.42;97790.88;5055338;28;1295;-87
2021/04/18 07:17:13;;;;;;;;;;;;;;;21.94;26.86;97795.13;5072276;28;1520;-86
2021/04/18 07:19:49;;;;;;;;;;;;;;;22.33;26.09;97776.91;5087950;28;1144;-85
2021/04/18 07:22:16;;;;;;;;;;;;;;;22.21;25.96;97779.72;5072358;28;1967;-86
2021/04/18 07:24:48;;;;;;;;;;;;;;;21.89;26.79;97786.41;5072285;28;1150;-85
2021/04/18 07:27:14;;;;;;;;;;;;;;;21.90;26.74;97799.31;5073122;28;610;-86
2021/04/18 07:29:39;;;;;;;;;;;;;;;21.63;27.12;97796.91;5089518;28;626;-84
2021/04/18 07:32:18;;;;;;;;;;;;;;;21.75;27.04;97782.75;5088868;28;1197;-86
2021/04/18 07:34:43;;;;;;;;;;;;;;;21.56;27.33;97786.59;5071631;28;1306;-86
2021/04/18 07:37:15;;;;;;;;;;;;;;;21.50;27.25;97783.53;5071652;28;866;-86
2021/04/18 07:39:45;;;;;;;;;;;;;;;21.53;27.31;97776.16;5087780;28;845;-86
2021/04/18 07:42:30;;;;;;;;;;;;;;;21.70;27.00;97774.81;5072088;28;1897;-87
2021/04/18 07:44:56;;;;;;;;;;;;;;;21.55;27.37;97785.78;5105191;28;1191;-84
2021/04/18 07:47:22;;;;;;;;;;;;;;;21.96;26.60;97791.81;5072699;28;1287;-84
2021/04/18 07:49:47;;;;;;;;;;;;;;;22.26;26.14;97787.66;5088591;28;821;-84
2021/04/18 07:52:19;;;;;;;;;;;;;;;22.17;26.19;97796.84;5089245;28;981;-86
2021/04/18 07:54:44;;;;;;;;;;;;;;;21.71;26.86;97789.75;5088177;28;1202;-85
2021/04/18 07:57:10;;;;;;;;;;;;;;;21.54;27.07;97789.06;5088716;28;1136;-86
2021/04/18 07:59:37;;;;;;;;;;;;;;;21.46;27.33;97793.38;5072056;28;967;-87
2021/04/18 08:02:03;;;;;;;;;;;;;;;21.49;27.25;97800.94;5072387;28;1997;-87
2021/04/18 08:04:29;;;;;;;;;;;;;;;21.54;27.22;97789.06;5105401;28;1153;-87
2021/04/18 08:06:54;;;;;;;;;;;;;;;21.52;27.25;97803.66;5088691;28;1334;-87
2021/04/18 08:09:20;;;;;;;;;;;;;;;21.51;27.52;97806.97;5089174;28;896;-86
2021/04/18 08:12:04;;;;;;;;;;;;;;;21.55;27.48;97796.31;5089424;28;905;-87
2021/04/18 08:14:31;;;;;;;;;;;;;;;22.10;26.32;97802.72;5088716;28;901;-87
2021/04/18 08:17:03;;;;;;;;;;;;;;;22.42;25.90;97784.69;5088753;28;778;-87
2021/04/18 08:19:32;;;;;;;;;;;;;;;21.97;26.57;97788.56;5071369;28;782;-87
2021/04/18 08:22:10;;;;;;;;;;;;;;;21.78;26.69;97783.91;5070940;28;1886;-85
2021/04/18 08:24:36;;;;;;;;;;;;;;;21.59;27.17;97775.13;5070146;28;1143;-85
2021/04/18 08:27:01;;;;;;;;;;;;;;;21.63;26.87;97763.72;5072108;28;925;-87
2021/04/18 08:29:27;;;;;;;;;;;;;;;21.62;27.32;97778.34;5087760;28;876;-86
2021/04/18 08:31:54;;;;;;;;;;;;;;;21.50;27.53;97777.03;5087640;28;899;-86
2021/04/18 08:34:23;;;;;;;;;;;;;;;21.50;27.43;97768.53;5069998;28;1420;-86
2021/04/18 08:36:49;;;;;;;;;;;;;;;21.68;27.26;97774.47;5087475;28;1305;-87
2021/04/18 08:39:14;;;;;;;;;;;;;;;21.55;27.35;97776.47;5070060;28;1280;-87
2021/04/18 08:41:40;;;;;;;;;;;;;;;21.56;27.50;97778.09;5104528;28;1906;-86
2021/04/18 08:44:16;;;;;;;;;;;;;;;21.55;27.53;97773.66;5054178;28;1218;-86
2021/04/18 08:46:43;;;;;;;;;;;;;;;21.45;27.40;97763.44;5062413;28;1111;-87
2021/04/18 08:49:12;;;;;;;;;;;;;;;21.49;27.56;97758.47;5071264;28;1175;-87
2021/04/18 08:51:47;;;;;;;;;;;;;;;21.92;26.93;97757.19;5052899;28;1169;-86
2021/04/18 08:54:13;;;;;;;;;;;;;;;22.35;26.22;97763.06;5074784;28;1166;-87
2021/04/18 08:56:48;;;;;;;;;;;;;;;22.17;26.30;97757.16;5092620;28;1238;-87
2021/04/18 08:59:14;;;;;;;;;;;;;;;21.82;26.74;97761.94;5109781;28;1305;-86
2021/04/18 09:01:52;;;;;;;;;;;;;;;21.59;27.29;97763.81;5076579;28;1959;-86
2021/04/18 09:04:19;;;;;;;;;;;;;;;21.57;27.34;97765.53;5109138;28;875;-87
2021/04/18 09:06:47;;;;;;;;;;;;;;;21.56;27.35;97755.44;5057285;28;1209;-86
2021/04/18 09:09:12;;;;;;;;;;;;;;;21.61;27.38;97749.22;5074840;28;1287;-87
2021/04/18 09:11:38;;;;;;;;;;;;;;;21.50;27.79;97743.06;5092450;28;1273;-86
2021/04/18 09:14:04;;;;;;;;;;;;;;;21.57;27.54;97759.84;5091245;28;1214;-86
2021/04/18 09:16:31;;;;;;;;;;;;;;;21.57;27.32;97755.00;5074795;28;1304;-87
2021/04/18 09:19:15;;;;;;;;;;;;;;;21.54;27.45;97743.75;5057602;28;1241;-86
2021/04/18 09:21:41;;;;;;;;;;;;;;;21.50;27.80;97743.06;5090540;28;1874;-86
2021/04/18 09:24:07;;;;;;;;;;;;;;;21.43;27.63;97731.97;5091535;28;1182;-87
2021/04/18 09:26:32;;;;;;;;;;;;;;;21.39;27.68;97736.94;5084053;28;1221;-86
2021/04/18 09:29:04;;;;;;;;;;;;;;;21.94;27.14;97727.13;5074533;28;1215;-86
2021/04/18 09:31:30;;;;;;;;;;;;;;;22.21;26.38;97723.84;5091133;28;1179;-87
2021/04/18 09:34:03;;;;;;;;;;;;;;;22.37;26.32;97725.75;5073814;28;1269;-87
2021/04/18 09:36:28;;;;;;;;;;;;;;;21.92;26.64;97721.16;5091075;28;1146;-85
2021/04/18 09:38:53;;;;;;;;;;;;;;;21.64;27.18;97720.00;5091596;28;1166;-86
2021/04/18 09:41:19;;;;;;;;;;;;;;;21.62;27.22;97728.16;5108869;28;1879;-86
2021/04/18 09:43:44;;;;;;;;;;;;;;;21.59;27.29;97720.56;5075152;28;1315;-86
2021/04/18 09:46:10;;;;;;;;;;;;;;;21.64;27.55;97725.66;5074883;28;1178;-86
2021/04/18 09:48:35;;;;;;;;;;;;;;;21.56;27.70;97727.94;5074410;28;1290;-85
2021/04/18 09:51:01;;;;;;;;;;;;;;;21.57;27.63;97723.84;5074615;28;878;-87
2021/04/18 09:53:29;;;;;;;;;;;;;;;21.57;27.78;97731.56;5074450;28;1265;-86
2021/04/18 09:55:55;;;;;;;;;;;;;;;21.45;27.70;97723.81;5092353;28;718;-87
2021/04/18 09:58:24;;;;;;;;;;;;;;;21.95;27.01;97728.72;5108793;28;1036;-87
2021/04/18 10:00:49;;;;;;;;;;;;;;;22.24;26.68;97733.50;5075563;28;1961;-87
2021/04/18 10:03:15;;;;;;;;;;;;;;;22.02;26.68;97739.84;5074209;28;1252;-86
2021/04/18 10:05:43;;;;;;;;;;;;;;;21.74;27.21;97752.06;5091194;28;880;-87
2021/04/18 10:08:16;;;;;;;;;;;;;;;21.69;27.23;97744.13;5108910;28;1045;-86
2021/04/18 10:10:41;;;;;;;;;;;;;;;21.68;27.27;97749.00;5057559;28;1118;-86
2021/04/18 10:13:07;;;;;;;;;;;;;;;21.61;27.58;97752.06;5075370;28;1298;-86
2021/04/18 10:15:32;;;;;;;;;;;;;;;21.59;27.60;97752.50;5074181;28;866;-85
2021/04/18 10:18:07;;;;;;;;;;;;;;;21.43;27.98;97755.41;5074115;28;1150;-86
2021/04/18 10:20:35;;;;;;;;;;;;;;;21.35;27.82;97744.75;5057597;28;1898;-87
2021/04/18 10:23:08;;;;;;;;;;;;;;;21.61;27.57;97754.09;5074564;28;1285;-87
2021/04/18 10:25:34;;;;;;;;;;;;;;;21.61;27.57;97754.88;5074461;28;1312;-86
2021/04/18 10:27:59;;;;;;;;;;;;;;;22.14;26.70;97752.44;5057874;28;1245;-87
2021/04/18 10:30:25;;;;;;;;;;;;;;;22.32;26.43;97749.78;5057996;28;1157;-87
2021/04/18 10:32:50;;;;;;;;;;;;;;;21.99;26.89;97756.94;5073952;28;940;-86
2021/04/18 10:35:16;;;;;;;;;;;;;;;21.66;27.43;97781.81;5090147;28;824;-86
2021/04/18 10:37:41;;;;;;;;;;;;;;;21.62;27.43;97750.03;5074365;28;956;-86
2021/04/18 10:40:07;;;;;;;;;;;;;;;21.67;27.48;97761.56;5056924;28;1268;-87
2021/04/18 10:42:32;;;;;;;;;;;;;;;21.52;27.74;97757.59;5057620;28;1960;-86
2021/04/18 10:44:58;;;;;;;;;;;;;;;21.45;27.97;97757.78;5073078;28;1147;-86
2021/04/18 10:47:23;;;;;;;;;;;;;;;21.52;27.91;97758.38;5074030;28;1346;-86
2021/04/18 10:49:50;;;;;;;;;;;;;;;21.43;28.25;97761.06;5090148;28;1274;-86
2021/04/18 10:52:15;;;;;;;;;;;;;;;21.44;28.06;97751.31;5074700;28;849;-87
2021/04/18 10:54:41;;;;;;;;;;;;;;;21.46;28.08;97760.19;5073737;28;575;-87
2021/04/18 10:57:06;;;;;;;;;;;;;;;22.08;26.92;97748.56;5090001;28;1152;-87
2021/04/18 10:59:32;;;;;;;;;;;;;;;22.36;26.58;97752.50;5073893;28;1275;-87
2021/04/18 11:01:57;;;;;;;;;;;;;;;21.97;26.89;97754.56;5072611;28;1882;-86
2021/04/18 11:04:23;;;;;;;;;;;;;;;21.76;27.29;97753.22;5073354;28;969;-86
2021/04/18 11:06:48;;;;;;;;;;;;;;;21.48;27.56;97748.41;5073333;28;921;-86
2021/04/18 11:09:14;;;;;;;;;;;;;;;21.51;27.61;97745.47;5089119;28;805;-86
2021/04/18 11:11:40;;;;;;;;;;;;;;;21.55;27.75;97740.50;5072966;28;1229;-87
2021/04/18 11:14:05;;;;;;;;;;;;;;;21.53;27.65;97748.63;5073631;28;1319;-86
2021/04/18 11:16:31;;;;;;;;;;;;;;;21.49;27.91;97747.16;5072365;28;919;-86
2021/04/18 11:18:56;;;;;;;;;;;;;;;21.48;27.87;97740.69;5088684;28;935;-86
2021/04/18 11:21:23;;;;;;;;;;;;;;;21.46;28.21;97742.41;5073100;28;1882;-87
2021/04/18 11:23:49;;;;;;;;;;;;;;;21.97;27.27;97748.09;5072509;28;1130;-86
2021/04/18 11:26:14;;;;;;;;;;;;;;;22.39;26.49;97739.47;5081571;28;1143;-87
2021/04/18 11:28:40;;;;;;;;;;;;;;;22.52;26.13;97731.72;5088591;28;1166;-87
2021/04/18 11:31:05;;;;;;;;;;;;;;;21.91;27.22;97710.25;5072053;28;1136;-87
2021/04/18 11:33:31;;;;;;;;;;;;;;;21.73;27.26;97705.97;5071589;28;1171;-87
2021/04/18 11:35:56;;;;;;;;;;;;;;;21.77;27.24;97703.81;5073132;28;1214;-86
2021/04/18 11:38:22;;;;;;;;;;;;;;;21.54;27.79;97710.59;5087416;28;1202;-84
2021/04/18 11:40:47;;;;;;;;;;;;;;;21.55;27.91;97711.38;5072315;28;1949;-86
2021/04/18 11:43:13;;;;;;;;;;;;;;;21.39;28.21;97700.16;5089444;28;821;-87
2021/04/18 11:45:38;;;;;;;;;;;;;;;21.34;28.28;97707.16;5071832;28;960;-85
2021/04/18 11:48:04;;;;;;;;;;;;;;;21.35;28.21;97708.78;5070539;28;932;-86
2021/04/18 11:50:29;;;;;;;;;;;;;;;21.64;27.99;97703.00;5088859;28;1169;-85
2021/04/18 11:52:55;;;;;;;;;;;;;;;22.24;27.02;97714.44;5089043;28;1261;-86
2021/04/18 11:55:22;;;;;;;;;;;;;;;22.23;26.71;97712.88;5088235;28;680;-86
2021/04/18 11:57:47;;;;;;;;;;;;;;;21.74;27.31;97716.03;5055924;28;1289;-86
2021/04/18 12:00:13;;;;;;;;;;;;;;;21.66;27.61;97728.84;5071051;28;891;-86
2021/04/18 12:02:38;;;;;;;;;;;;;;;21.59;27.70;97729.03;5071435;28;1969;-87
2021/04/18 12:05:05;;;;;;;;;;;;;;;21.61;27.95;97715.25;5072645;28;1074;-86
2021/04/18 12:07:31;;;;;;;;;;;;;;;22.08;27.07;97717.38;5072826;28;761;-86
2021/04/18 12:09:57;;;;;;;;;;;;;;;22.36;26.71;97724.94;5087831;28;863;-87
2021/04/18 12:12:23;;;;;;;;;;;;;;;21.90;27.17;97729.28;5072185;28;1189;-86
2021/04/18 12:14:50;;;;;;;;;;;;;;;21.85;27.14;97716.47;5088634;28;1288;-86
2021/04/18 12:17:16;;;;;;;;;;;;;;;21.82;27.21;97727.94;5071903;28;932;-86
2021/04/18 12:19:41;;;;;;;;;;;;;;;21.70;27.63;97729.50;5071921;28;1462;-86
2021/04/18 12:22:08;;;;;;;;;;;;;;;21.69;27.72;97722.25;5087503;28;1965;-85
2021/04/18 12:24:33;;;;;;;;;;;;;;;21.51;28.20;97727.69;5088057;28;824;-86
2021/04/18 12:26:59;;;;;;;;;;;;;;;21.54;27.87;97733.22;5071719;28;654;-85
2021/04/18 12:29:31;;;;;;;;;;;;;;;21.65;28.08;97735.72;5074169;22;1702;-84
2021/04/18 12:32:10;;;;;;;;;;;;;;;22.33;26.76;97734.38;5029099;28;1714;-87
2021/04/18 12:34:42;;;;;;;;;;;;;;;22.27;26.54;97739.03;5044438;28;877;-84
2021/04/18 12:37:08;;;;;;;;;;;;;;;21.73;27.47;97739.94;5029180;28;1188;-86
2021/04/18 12:39:40;;;;;;;;;;;;;;;21.66;27.53;97751.50;5029023;28;681;-86
2021/04/18 12:42:05;;;;;;;;;;;;;;;21.54;27.91;97760.75;5027998;28;1887;-86
2021/04/18 12:44:38;;;;;;;;;;;;;;;21.61;28.16;97763.38;5027842;28;1204;-86
2021/04/18 12:47:13;;;;;;;;;;;;;;;21.57;28.05;97757.03;5029100;28;918;-86
2021/04/18 12:49:46;;;;;;;;;;;;;;;21.49;28.31;97766.97;5044401;28;902;-86
2021/04/18 12:52:18;;;;;;;;;;;;;;;21.45;28.24;97760.63;5045104;28;804;-86
2021/04/18 12:54:50;;;;;;;;;;;;;;;21.51;28.27;97750.34;5028922;28;1374;-86
2021/04/18 12:57:22;;;;;;;;;;;;;;;21.44;28.32;97750.53;5028825;28;1197;-86
2021/04/18 13:00:20;;;;;;;;;;;;;;;21.39;28.01;97732.06;5044147;28;1955;-86
2021/04/18 13:02:52;;;;;;;;;;;;;;;21.49;27.91;97724.50;5027684;28;1229;-86